sensor_id;sensor_type;location;lat;lon;timestamp;P1;durP1;ratioP1;P2;durP2;ratioP2
70549;SDS011;58101;48.658;2.328;2022-08-21T00:02:12;10.63;;;3.97;;
70549;SDS011;58101;48.658;2.328;2022-08-21T00:04:40;13.63;;;4.00;;
70549;SDS011;58101;48.658;2.328;2022-08-21T00:07:06;13.65;;;4.03;;
70549;SDS011;58101;48.658;2.328;2022-08-21T00:09:31;10.57;;;3.20;;
70549;SDS011;58101;48.658;2.328;2022-08-21T00:11:57;9.90;;;3.30;;
70549;SDS011;58101;48.658;2.328;2022-08-21T00:14:23;10.73;;;3.17;;
70549;SDS011;58101;48.658;2.328;2022-08-21T00:16:48;10.65;;;3.00;;
70549;SDS011;58101;48.658;2.328;2022-08-21T00:19:14;12.57;;;3.30;;
70549;SDS011;58101;48.658;2.328;2022-08-21T00:21:40;12.65;;;3.70;;
70549;SDS011;58101;48.658;2.328;2022-08-21T00:24:06;10.65;;;3.08;;
70549;SDS011;58101;48.658;2.328;2022-08-21T00:26:32;8.02;;;3.45;;
70549;SDS011;58101;48.658;2.328;2022-08-21T00:28:58;10.55;;;3.25;;
70549;SDS011;58101;48.658;2.328;2022-08-21T00:31:23;11.00;;;3.33;;
70549;SDS011;58101;48.658;2.328;2022-08-21T00:33:49;12.15;;;3.47;;
70549;SDS011;58101;48.658;2.328;2022-08-21T00:36:15;10.73;;;3.35;;
70549;SDS011;58101;48.658;2.328;2022-08-21T00:38:41;9.25;;;2.95;;
70549;SDS011;58101;48.658;2.328;2022-08-21T00:41:07;14.10;;;3.55;;
70549;SDS011;58101;48.658;2.328;2022-08-21T00:43:35;12.02;;;3.45;;
70549;SDS011;58101;48.658;2.328;2022-08-21T00:46:03;11.70;;;3.35;;
70549;SDS011;58101;48.658;2.328;2022-08-21T00:48:30;11.57;;;3.40;;
70549;SDS011;58101;48.658;2.328;2022-08-21T00:53:59;9.43;;;3.20;;
70549;SDS011;58101;48.658;2.328;2022-08-21T00:56:27;11.30;;;3.00;;
70549;SDS011;58101;48.658;2.328;2022-08-21T00:58:53;10.15;;;3.08;;
70549;SDS011;58101;48.658;2.328;2022-08-21T01:01:21;11.60;;;3.40;;
70549;SDS011;58101;48.658;2.328;2022-08-21T01:03:47;14.38;;;3.45;;
70549;SDS011;58101;48.658;2.328;2022-08-21T01:08:39;10.60;;;3.10;;
70549;SDS011;58101;48.658;2.328;2022-08-21T01:11:06;11.25;;;3.47;;
70549;SDS011;58101;48.658;2.328;2022-08-21T01:13:33;10.90;;;3.25;;
70549;SDS011;58101;48.658;2.328;2022-08-21T01:16:02;13.35;;;3.38;;
70549;SDS011;58101;48.658;2.328;2022-08-21T01:18:29;11.40;;;3.35;;
70549;SDS011;58101;48.658;2.328;2022-08-21T01:20:58;11.38;;;3.10;;
70549;SDS011;58101;48.658;2.328;2022-08-21T01:23:34;12.40;;;3.45;;
70549;SDS011;58101;48.658;2.328;2022-08-21T01:26:02;14.25;;;3.70;;
70549;SDS011;58101;48.658;2.328;2022-08-21T01:28:28;11.68;;;3.42;;
70549;SDS011;58101;48.658;2.328;2022-08-21T01:30:59;11.98;;;3.50;;
70549;SDS011;58101;48.658;2.328;2022-08-21T01:33:27;13.02;;;3.33;;
70549;SDS011;58101;48.658;2.328;2022-08-21T01:35:53;11.27;;;3.60;;
70549;SDS011;58101;48.658;2.328;2022-08-21T01:38:19;9.43;;;3.40;;
70549;SDS011;58101;48.658;2.328;2022-08-21T01:40:45;10.75;;;3.38;;
70549;SDS011;58101;48.658;2.328;2022-08-21T01:43:11;11.68;;;3.30;;
70549;SDS011;58101;48.658;2.328;2022-08-21T01:45:36;11.55;;;3.35;;
70549;SDS011;58101;48.658;2.328;2022-08-21T01:48:02;10.98;;;3.33;;
70549;SDS011;58101;48.658;2.328;2022-08-21T01:50:28;9.85;;;3.25;;
70549;SDS011;58101;48.658;2.328;2022-08-21T01:52:54;10.95;;;3.47;;
70549;SDS011;58101;48.658;2.328;2022-08-21T01:55:20;11.95;;;3.35;;
70549;SDS011;58101;48.658;2.328;2022-08-21T02:00:13;9.70;;;3.25;;
70549;SDS011;58101;48.658;2.328;2022-08-21T02:02:41;9.93;;;3.03;;
70549;SDS011;58101;48.658;2.328;2022-08-21T02:05:08;11.35;;;3.40;;
70549;SDS011;58101;48.658;2.328;2022-08-21T02:07:47;9.85;;;3.20;;
70549;SDS011;58101;48.658;2.328;2022-08-21T02:10:18;9.50;;;3.33;;
70549;SDS011;58101;48.658;2.328;2022-08-21T02:12:49;10.50;;;3.35;;
70549;SDS011;58101;48.658;2.328;2022-08-21T02:15:14;10.23;;;3.40;;
70549;SDS011;58101;48.658;2.328;2022-08-21T02:17:44;12.38;;;3.40;;
70549;SDS011;58101;48.658;2.328;2022-08-21T02:20:19;8.95;;;3.40;;
70549;SDS011;58101;48.658;2.328;2022-08-21T02:22:51;10.75;;;3.20;;
70549;SDS011;58101;48.658;2.328;2022-08-21T02:27:44;12.10;;;3.35;;
70549;SDS011;58101;48.658;2.328;2022-08-21T02:30:16;10.57;;;3.33;;
70549;SDS011;58101;48.658;2.328;2022-08-21T02:32:44;9.70;;;3.10;;
70549;SDS011;58101;48.658;2.328;2022-08-21T02:35:10;11.30;;;3.40;;
70549;SDS011;58101;48.658;2.328;2022-08-21T02:40:10;10.05;;;3.60;;
70549;SDS011;58101;48.658;2.328;2022-08-21T02:42:36;9.70;;;3.00;;
70549;SDS011;58101;48.658;2.328;2022-08-21T02:45:03;9.02;;;3.10;;
70549;SDS011;58101;48.658;2.328;2022-08-21T02:47:30;10.68;;;3.20;;
70549;SDS011;58101;48.658;2.328;2022-08-21T02:49:55;11.60;;;3.60;;
70549;SDS011;58101;48.658;2.328;2022-08-21T02:52:21;10.75;;;3.35;;
70549;SDS011;58101;48.658;2.328;2022-08-21T02:54:47;13.15;;;3.65;;
70549;SDS011;58101;48.658;2.328;2022-08-21T02:57:12;10.18;;;3.60;;
70549;SDS011;58101;48.658;2.328;2022-08-21T02:59:38;9.50;;;3.22;;
70549;SDS011;58101;48.658;2.328;2022-08-21T03:02:05;11.07;;;3.30;;
70549;SDS011;58101;48.658;2.328;2022-08-21T03:04:31;10.77;;;3.30;;
70549;SDS011;58101;48.658;2.328;2022-08-21T03:06:57;11.93;;;3.33;;
70549;SDS011;58101;48.658;2.328;2022-08-21T03:09:23;11.40;;;3.35;;
70549;SDS011;58101;48.658;2.328;2022-08-21T03:11:49;10.70;;;3.10;;
70549;SDS011;58101;48.658;2.328;2022-08-21T03:14:16;10.00;;;3.25;;
70549;SDS011;58101;48.658;2.328;2022-08-21T03:16:42;13.30;;;3.08;;
70549;SDS011;58101;48.658;2.328;2022-08-21T03:19:08;10.20;;;3.40;;
70549;SDS011;58101;48.658;2.328;2022-08-21T03:21:34;13.07;;;3.65;;
70549;SDS011;58101;48.658;2.328;2022-08-21T03:24:00;9.35;;;3.25;;
70549;SDS011;58101;48.658;2.328;2022-08-21T03:26:26;9.68;;;3.10;;
70549;SDS011;58101;48.658;2.328;2022-08-21T03:28:52;10.82;;;3.70;;
70549;SDS011;58101;48.658;2.328;2022-08-21T03:31:18;11.45;;;3.55;;
70549;SDS011;58101;48.658;2.328;2022-08-21T03:33:43;11.15;;;3.17;;
70549;SDS011;58101;48.658;2.328;2022-08-21T03:36:09;9.52;;;2.97;;
70549;SDS011;58101;48.658;2.328;2022-08-21T03:38:35;9.60;;;2.90;;
70549;SDS011;58101;48.658;2.328;2022-08-21T03:41:02;12.60;;;3.40;;
70549;SDS011;58101;48.658;2.328;2022-08-21T03:43:29;9.93;;;3.25;;
70549;SDS011;58101;48.658;2.328;2022-08-21T03:45:56;12.85;;;3.13;;
70549;SDS011;58101;48.658;2.328;2022-08-21T03:48:22;11.73;;;3.30;;
70549;SDS011;58101;48.658;2.328;2022-08-21T03:50:48;8.55;;;2.85;;
70549;SDS011;58101;48.658;2.328;2022-08-21T03:53:17;9.70;;;3.20;;
70549;SDS011;58101;48.658;2.328;2022-08-21T03:55:43;8.68;;;3.00;;
70549;SDS011;58101;48.658;2.328;2022-08-21T03:58:10;10.50;;;3.30;;
70549;SDS011;58101;48.658;2.328;2022-08-21T04:00:36;10.13;;;2.95;;
70549;SDS011;58101;48.658;2.328;2022-08-21T04:03:02;9.95;;;3.08;;
70549;SDS011;58101;48.658;2.328;2022-08-21T04:05:28;7.70;;;2.95;;
70549;SDS011;58101;48.658;2.328;2022-08-21T04:07:58;9.73;;;3.20;;
70549;SDS011;58101;48.658;2.328;2022-08-21T04:10:27;10.23;;;3.05;;
70549;SDS011;58101;48.658;2.328;2022-08-21T04:12:53;12.50;;;3.35;;
70549;SDS011;58101;48.658;2.328;2022-08-21T04:15:20;10.30;;;2.70;;
70549;SDS011;58101;48.658;2.328;2022-08-21T04:17:47;7.85;;;2.80;;
70549;SDS011;58101;48.658;2.328;2022-08-21T04:20:14;10.07;;;3.05;;
70549;SDS011;58101;48.658;2.328;2022-08-21T04:22:40;9.85;;;3.10;;
70549;SDS011;58101;48.658;2.328;2022-08-21T04:25:06;8.10;;;2.80;;
70549;SDS011;58101;48.658;2.328;2022-08-21T04:27:33;12.40;;;3.10;;
70549;SDS011;58101;48.658;2.328;2022-08-21T04:32:26;7.38;;;3.10;;
70549;SDS011;58101;48.658;2.328;2022-08-21T04:34:58;9.98;;;3.00;;
70549;SDS011;58101;48.658;2.328;2022-08-21T04:37:30;9.32;;;3.10;;
70549;SDS011;58101;48.658;2.328;2022-08-21T04:39:56;9.25;;;2.90;;
70549;SDS011;58101;48.658;2.328;2022-08-21T04:42:23;9.43;;;2.70;;
70549;SDS011;58101;48.658;2.328;2022-08-21T04:44:51;9.60;;;2.65;;
70549;SDS011;58101;48.658;2.328;2022-08-21T04:47:17;10.55;;;3.28;;
70549;SDS011;58101;48.658;2.328;2022-08-21T04:49:43;10.00;;;3.08;;
70549;SDS011;58101;48.658;2.328;2022-08-21T04:52:09;10.15;;;2.90;;
70549;SDS011;58101;48.658;2.328;2022-08-21T04:54:36;9.82;;;2.92;;
70549;SDS011;58101;48.658;2.328;2022-08-21T04:57:04;12.02;;;2.70;;
70549;SDS011;58101;48.658;2.328;2022-08-21T04:59:38;8.93;;;2.90;;
70549;SDS011;58101;48.658;2.328;2022-08-21T05:02:08;10.07;;;3.00;;
70549;SDS011;58101;48.658;2.328;2022-08-21T05:04:36;8.93;;;2.50;;
70549;SDS011;58101;48.658;2.328;2022-08-21T05:07:09;9.82;;;3.10;;
70549;SDS011;58101;48.658;2.328;2022-08-21T05:09:39;13.02;;;3.30;;
70549;SDS011;58101;48.658;2.328;2022-08-21T05:12:06;9.80;;;3.10;;
70549;SDS011;58101;48.658;2.328;2022-08-21T05:14:32;8.30;;;2.72;;
70549;SDS011;58101;48.658;2.328;2022-08-21T05:16:58;9.18;;;2.72;;
70549;SDS011;58101;48.658;2.328;2022-08-21T05:19:23;10.52;;;2.80;;
70549;SDS011;58101;48.658;2.328;2022-08-21T05:21:50;10.90;;;3.13;;
70549;SDS011;58101;48.658;2.328;2022-08-21T05:24:16;12.88;;;3.95;;
70549;SDS011;58101;48.658;2.328;2022-08-21T05:26:42;13.23;;;3.22;;
70549;SDS011;58101;48.658;2.328;2022-08-21T05:31:35;10.43;;;3.00;;
70549;SDS011;58101;48.658;2.328;2022-08-21T05:34:01;8.90;;;2.88;;
70549;SDS011;58101;48.658;2.328;2022-08-21T05:36:27;9.48;;;2.90;;
70549;SDS011;58101;48.658;2.328;2022-08-21T05:38:53;9.93;;;3.10;;
70549;SDS011;58101;48.658;2.328;2022-08-21T05:41:19;11.80;;;3.05;;
70549;SDS011;58101;48.658;2.328;2022-08-21T05:43:45;9.00;;;2.90;;
70549;SDS011;58101;48.658;2.328;2022-08-21T05:46:10;7.57;;;2.72;;
70549;SDS011;58101;48.658;2.328;2022-08-21T05:48:36;10.57;;;2.95;;
70549;SDS011;58101;48.658;2.328;2022-08-21T05:51:12;13.10;;;3.05;;
70549;SDS011;58101;48.658;2.328;2022-08-21T05:53:39;9.68;;;3.08;;
70549;SDS011;58101;48.658;2.328;2022-08-21T05:56:10;9.10;;;2.75;;
70549;SDS011;58101;48.658;2.328;2022-08-21T05:58:36;12.02;;;2.90;;
70549;SDS011;58101;48.658;2.328;2022-08-21T06:01:02;9.40;;;2.83;;
70549;SDS011;58101;48.658;2.328;2022-08-21T06:03:29;12.90;;;3.15;;
70549;SDS011;58101;48.658;2.328;2022-08-21T06:05:57;11.98;;;3.40;;
70549;SDS011;58101;48.658;2.328;2022-08-21T06:08:24;9.63;;;3.00;;
70549;SDS011;58101;48.658;2.328;2022-08-21T06:10:50;11.18;;;2.80;;
70549;SDS011;58101;48.658;2.328;2022-08-21T06:13:17;12.98;;;3.40;;
70549;SDS011;58101;48.658;2.328;2022-08-21T06:18:10;13.00;;;3.85;;
70549;SDS011;58101;48.658;2.328;2022-08-21T06:20:35;12.40;;;2.88;;
70549;SDS011;58101;48.658;2.328;2022-08-21T06:23:02;8.73;;;3.03;;
70549;SDS011;58101;48.658;2.328;2022-08-21T06:25:28;9.05;;;3.00;;
70549;SDS011;58101;48.658;2.328;2022-08-21T06:28:00;9.95;;;2.92;;
70549;SDS011;58101;48.658;2.328;2022-08-21T06:30:27;12.68;;;3.47;;
70549;SDS011;58101;48.658;2.328;2022-08-21T06:32:52;8.68;;;3.33;;
70549;SDS011;58101;48.658;2.328;2022-08-21T06:35:18;10.18;;;3.15;;
70549;SDS011;58101;48.658;2.328;2022-08-21T06:37:44;11.43;;;3.40;;
70549;SDS011;58101;48.658;2.328;2022-08-21T06:40:10;11.40;;;3.45;;
70549;SDS011;58101;48.658;2.328;2022-08-21T06:42:36;12.77;;;3.40;;
70549;SDS011;58101;48.658;2.328;2022-08-21T06:45:03;13.48;;;3.63;;
70549;SDS011;58101;48.658;2.328;2022-08-21T06:47:29;13.02;;;3.40;;
70549;SDS011;58101;48.658;2.328;2022-08-21T06:49:54;15.15;;;3.65;;
70549;SDS011;58101;48.658;2.328;2022-08-21T06:52:20;10.68;;;3.05;;
70549;SDS011;58101;48.658;2.328;2022-08-21T06:54:46;10.80;;;3.40;;
70549;SDS011;58101;48.658;2.328;2022-08-21T06:57:11;10.40;;;2.83;;
70549;SDS011;58101;48.658;2.328;2022-08-21T06:59:37;9.60;;;2.90;;
70549;SDS011;58101;48.658;2.328;2022-08-21T07:02:03;9.85;;;2.90;;
70549;SDS011;58101;48.658;2.328;2022-08-21T07:04:28;10.15;;;3.03;;
70549;SDS011;58101;48.658;2.328;2022-08-21T07:06:54;11.52;;;3.45;;
70549;SDS011;58101;48.658;2.328;2022-08-21T07:09:20;10.68;;;3.15;;
70549;SDS011;58101;48.658;2.328;2022-08-21T07:11:46;12.98;;;3.58;;
70549;SDS011;58101;48.658;2.328;2022-08-21T07:14:20;9.68;;;3.20;;
70549;SDS011;58101;48.658;2.328;2022-08-21T07:16:47;9.27;;;3.00;;
70549;SDS011;58101;48.658;2.328;2022-08-21T07:19:13;9.25;;;3.08;;
70549;SDS011;58101;48.658;2.328;2022-08-21T07:21:39;13.85;;;3.28;;
70549;SDS011;58101;48.658;2.328;2022-08-21T07:24:05;10.20;;;3.50;;
70549;SDS011;58101;48.658;2.328;2022-08-21T07:26:31;10.23;;;2.83;;
70549;SDS011;58101;48.658;2.328;2022-08-21T07:28:57;10.70;;;2.90;;
70549;SDS011;58101;48.658;2.328;2022-08-21T07:31:23;12.00;;;2.80;;
70549;SDS011;58101;48.658;2.328;2022-08-21T07:33:51;10.32;;;2.80;;
70549;SDS011;58101;48.658;2.328;2022-08-21T07:36:17;11.77;;;2.85;;
70549;SDS011;58101;48.658;2.328;2022-08-21T07:38:43;12.07;;;3.42;;
70549;SDS011;58101;48.658;2.328;2022-08-21T07:41:13;11.20;;;2.67;;
70549;SDS011;58101;48.658;2.328;2022-08-21T07:43:43;14.07;;;3.00;;
70549;SDS011;58101;48.658;2.328;2022-08-21T07:46:09;11.50;;;2.80;;
70549;SDS011;58101;48.658;2.328;2022-08-21T07:48:36;9.57;;;2.42;;
70549;SDS011;58101;48.658;2.328;2022-08-21T07:51:04;10.38;;;2.80;;
70549;SDS011;58101;48.658;2.328;2022-08-21T07:53:33;11.13;;;2.67;;
70549;SDS011;58101;48.658;2.328;2022-08-21T07:56:00;10.27;;;2.80;;
70549;SDS011;58101;48.658;2.328;2022-08-21T07:58:26;9.20;;;2.33;;
70549;SDS011;58101;48.658;2.328;2022-08-21T08:00:52;9.70;;;2.65;;
70549;SDS011;58101;48.658;2.328;2022-08-21T08:03:18;8.23;;;2.20;;
70549;SDS011;58101;48.658;2.328;2022-08-21T08:05:43;12.32;;;2.45;;
70549;SDS011;58101;48.658;2.328;2022-08-21T08:08:09;9.57;;;2.40;;
70549;SDS011;58101;48.658;2.328;2022-08-21T08:10:35;11.13;;;2.60;;
70549;SDS011;58101;48.658;2.328;2022-08-21T08:13:03;9.13;;;2.50;;
70549;SDS011;58101;48.658;2.328;2022-08-21T08:15:28;11.50;;;2.40;;
70549;SDS011;58101;48.658;2.328;2022-08-21T08:17:54;10.57;;;2.75;;
70549;SDS011;58101;48.658;2.328;2022-08-21T08:20:21;8.50;;;2.40;;
70549;SDS011;58101;48.658;2.328;2022-08-21T08:22:49;10.57;;;2.53;;
70549;SDS011;58101;48.658;2.328;2022-08-21T08:25:16;9.07;;;2.20;;
70549;SDS011;58101;48.658;2.328;2022-08-21T08:27:43;10.10;;;2.53;;
70549;SDS011;58101;48.658;2.328;2022-08-21T08:30:10;8.10;;;2.22;;
70549;SDS011;58101;48.658;2.328;2022-08-21T08:32:37;9.07;;;2.35;;
70549;SDS011;58101;48.658;2.328;2022-08-21T08:35:04;8.68;;;2.30;;
70549;SDS011;58101;48.658;2.328;2022-08-21T08:37:32;11.85;;;2.22;;
70549;SDS011;58101;48.658;2.328;2022-08-21T08:39:58;10.02;;;2.30;;
70549;SDS011;58101;48.658;2.328;2022-08-21T08:42:28;10.73;;;2.28;;
70549;SDS011;58101;48.658;2.328;2022-08-21T08:45:11;9.32;;;2.20;;
70549;SDS011;58101;48.658;2.328;2022-08-21T08:47:43;8.90;;;2.17;;
70549;SDS011;58101;48.658;2.328;2022-08-21T08:52:52;11.43;;;2.10;;
70549;SDS011;58101;48.658;2.328;2022-08-21T08:55:20;6.93;;;1.83;;
70549;SDS011;58101;48.658;2.328;2022-08-21T08:57:48;8.07;;;2.00;;
70549;SDS011;58101;48.658;2.328;2022-08-21T09:00:15;8.40;;;2.00;;
70549;SDS011;58101;48.658;2.328;2022-08-21T09:02:44;10.65;;;2.10;;
70549;SDS011;58101;48.658;2.328;2022-08-21T09:05:17;8.55;;;1.80;;
70549;SDS011;58101;48.658;2.328;2022-08-21T09:10:53;8.85;;;1.95;;
70549;SDS011;58101;48.658;2.328;2022-08-21T09:27:27;9.80;;;1.88;;
70549;SDS011;58101;48.658;2.328;2022-08-21T09:29:55;9.65;;;2.20;;
70549;SDS011;58101;48.658;2.328;2022-08-21T09:32:28;7.85;;;1.75;;
70549;SDS011;58101;48.658;2.328;2022-08-21T09:38:04;10.95;;;2.45;;
70549;SDS011;58101;48.658;2.328;2022-08-21T09:40:35;9.48;;;1.67;;
70549;SDS011;58101;48.658;2.328;2022-08-21T09:43:17;8.00;;;1.90;;
70549;SDS011;58101;48.658;2.328;2022-08-21T09:45:44;7.55;;;1.70;;
70549;SDS011;58101;48.658;2.328;2022-08-21T09:48:13;7.65;;;1.50;;
70549;SDS011;58101;48.658;2.328;2022-08-21T09:50:42;7.65;;;1.70;;
70549;SDS011;58101;48.658;2.328;2022-08-21T09:53:17;8.63;;;1.85;;
70549;SDS011;58101;48.658;2.328;2022-08-21T09:58:33;9.25;;;1.63;;
70549;SDS011;58101;48.658;2.328;2022-08-21T10:01:01;8.30;;;2.00;;
70549;SDS011;58101;48.658;2.328;2022-08-21T10:03:28;9.77;;;2.80;;
70549;SDS011;58101;48.658;2.328;2022-08-21T10:06:04;7.70;;;1.60;;
70549;SDS011;58101;48.658;2.328;2022-08-21T10:08:35;8.48;;;1.70;;
70549;SDS011;58101;48.658;2.328;2022-08-21T10:11:07;7.45;;;1.85;;
70549;SDS011;58101;48.658;2.328;2022-08-21T10:16:19;7.45;;;1.58;;
70549;SDS011;58101;48.658;2.328;2022-08-21T10:19:02;7.88;;;1.60;;
70549;SDS011;58101;48.658;2.328;2022-08-21T10:29:39;8.20;;;1.63;;
70549;SDS011;58101;48.658;2.328;2022-08-21T10:35:18;6.97;;;1.60;;
70549;SDS011;58101;48.658;2.328;2022-08-21T10:49:29;7.70;;;1.85;;
70549;SDS011;58101;48.658;2.328;2022-08-21T10:52:45;7.47;;;1.60;;
70549;SDS011;58101;48.658;2.328;2022-08-21T10:54:57;7.43;;;1.45;;
70549;SDS011;58101;48.658;2.328;2022-08-21T10:57:41;7.85;;;1.60;;
70549;SDS011;58101;48.658;2.328;2022-08-21T11:00:21;8.00;;;1.63;;
70549;SDS011;58101;48.658;2.328;2022-08-21T11:02:53;8.05;;;1.50;;
70549;SDS011;58101;48.658;2.328;2022-08-21T11:05:40;6.70;;;1.40;;
70549;SDS011;58101;48.658;2.328;2022-08-21T11:08:23;5.40;;;1.40;;
70549;SDS011;58101;48.658;2.328;2022-08-21T11:11:12;7.90;;;1.73;;
70549;SDS011;58101;48.658;2.328;2022-08-21T11:13:45;7.72;;;2.10;;
70549;SDS011;58101;48.658;2.328;2022-08-21T11:16:22;7.35;;;1.40;;
70549;SDS011;58101;48.658;2.328;2022-08-21T11:21:39;6.38;;;1.30;;
70549;SDS011;58101;48.658;2.328;2022-08-21T11:24:23;4.50;;;1.08;;
70549;SDS011;58101;48.658;2.328;2022-08-21T11:29:50;6.80;;;1.63;;
70549;SDS011;58101;48.658;2.328;2022-08-21T11:42:29;6.00;;;1.20;;
70549;SDS011;58101;48.658;2.328;2022-08-21T11:50:38;6.97;;;1.23;;
70549;SDS011;58101;48.658;2.328;2022-08-21T11:53:21;7.50;;;2.08;;
70549;SDS011;58101;48.658;2.328;2022-08-21T11:56:00;8.15;;;2.20;;
70549;SDS011;58101;48.658;2.328;2022-08-21T11:58:35;5.72;;;1.50;;
70549;SDS011;58101;48.658;2.328;2022-08-21T12:01:19;6.28;;;1.40;;
70549;SDS011;58101;48.658;2.328;2022-08-21T12:04:04;5.65;;;1.35;;
70549;SDS011;58101;48.658;2.328;2022-08-21T12:06:38;6.65;;;1.33;;
70549;SDS011;58101;48.658;2.328;2022-08-21T12:09:07;5.32;;;1.40;;
70549;SDS011;58101;48.658;2.328;2022-08-21T12:12:02;6.13;;;1.40;;
70549;SDS011;58101;48.658;2.328;2022-08-21T12:14:38;4.90;;;1.15;;
70549;SDS011;58101;48.658;2.328;2022-08-21T12:17:08;4.38;;;1.15;;
70549;SDS011;58101;48.658;2.328;2022-08-21T12:19:41;5.25;;;1.20;;
70549;SDS011;58101;48.658;2.328;2022-08-21T12:22:11;5.05;;;1.15;;
70549;SDS011;58101;48.658;2.328;2022-08-21T12:24:39;3.80;;;0.90;;
70549;SDS011;58101;48.658;2.328;2022-08-21T12:29:50;3.42;;;0.80;;
70549;SDS011;58101;48.658;2.328;2022-08-21T12:32:29;3.45;;;0.88;;
70549;SDS011;58101;48.658;2.328;2022-08-21T12:35:10;5.68;;;1.10;;
70549;SDS011;58101;48.658;2.328;2022-08-21T12:37:47;4.57;;;1.05;;
70549;SDS011;58101;48.658;2.328;2022-08-21T12:40:39;3.42;;;0.90;;
70549;SDS011;58101;48.658;2.328;2022-08-21T12:43:22;5.72;;;1.30;;
70549;SDS011;58101;48.658;2.328;2022-08-21T12:45:53;5.45;;;1.20;;
70549;SDS011;58101;48.658;2.328;2022-08-21T12:50:51;7.15;;;1.10;;
70549;SDS011;58101;48.658;2.328;2022-08-21T12:53:46;4.65;;;1.00;;
70549;SDS011;58101;48.658;2.328;2022-08-21T12:56:16;6.30;;;1.10;;
70549;SDS011;58101;48.658;2.328;2022-08-21T13:03:45;6.50;;;1.02;;
70549;SDS011;58101;48.658;2.328;2022-08-21T13:06:13;4.07;;;0.88;;
70549;SDS011;58101;48.658;2.328;2022-08-21T13:08:41;4.85;;;0.98;;
70549;SDS011;58101;48.658;2.328;2022-08-21T13:11:09;4.95;;;0.93;;
70549;SDS011;58101;48.658;2.328;2022-08-21T13:13:37;4.95;;;0.95;;
70549;SDS011;58101;48.658;2.328;2022-08-21T13:16:05;5.22;;;0.90;;
70549;SDS011;58101;48.658;2.328;2022-08-21T13:18:33;4.63;;;1.00;;
70549;SDS011;58101;48.658;2.328;2022-08-21T13:21:10;3.72;;;0.90;;
70549;SDS011;58101;48.658;2.328;2022-08-21T13:23:37;4.18;;;0.90;;
70549;SDS011;58101;48.658;2.328;2022-08-21T13:26:16;4.93;;;0.90;;
70549;SDS011;58101;48.658;2.328;2022-08-21T13:28:46;4.85;;;1.00;;
70549;SDS011;58101;48.658;2.328;2022-08-21T13:31:19;4.53;;;0.82;;
70549;SDS011;58101;48.658;2.328;2022-08-21T13:33:49;4.45;;;0.82;;
70549;SDS011;58101;48.658;2.328;2022-08-21T13:36:24;4.20;;;1.00;;
70549;SDS011;58101;48.658;2.328;2022-08-21T13:38:54;3.40;;;0.80;;
70549;SDS011;58101;48.658;2.328;2022-08-21T13:41:21;3.10;;;0.80;;
70549;SDS011;58101;48.658;2.328;2022-08-21T13:43:59;5.03;;;1.00;;
70549;SDS011;58101;48.658;2.328;2022-08-21T13:46:35;10.75;;;1.13;;
70549;SDS011;58101;48.658;2.328;2022-08-21T13:49:02;4.80;;;1.05;;
70549;SDS011;58101;48.658;2.328;2022-08-21T13:51:30;7.72;;;1.10;;
70549;SDS011;58101;48.658;2.328;2022-08-21T13:53:56;3.83;;;0.68;;
70549;SDS011;58101;48.658;2.328;2022-08-21T13:56:27;3.58;;;0.85;;
70549;SDS011;58101;48.658;2.328;2022-08-21T13:58:57;3.08;;;0.70;;
70549;SDS011;58101;48.658;2.328;2022-08-21T14:01:25;3.17;;;0.70;;
70549;SDS011;58101;48.658;2.328;2022-08-21T14:04:19;2.08;;;0.60;;
70549;SDS011;58101;48.658;2.328;2022-08-21T14:07:19;3.85;;;0.77;;
70549;SDS011;58101;48.658;2.328;2022-08-21T14:09:50;2.53;;;0.57;;
70549;SDS011;58101;48.658;2.328;2022-08-21T14:12:18;2.40;;;0.60;;
70549;SDS011;58101;48.658;2.328;2022-08-21T14:14:49;3.05;;;0.60;;
70549;SDS011;58101;48.658;2.328;2022-08-21T14:17:33;4.35;;;0.80;;
70549;SDS011;58101;48.658;2.328;2022-08-21T14:20:04;3.72;;;0.80;;
70549;SDS011;58101;48.658;2.328;2022-08-21T14:25:26;3.72;;;0.68;;
70549;SDS011;58101;48.658;2.328;2022-08-21T14:30:51;4.38;;;0.93;;
70549;SDS011;58101;48.658;2.328;2022-08-21T14:33:23;5.32;;;0.90;;
70549;SDS011;58101;48.658;2.328;2022-08-21T14:35:55;4.10;;;0.77;;
70549;SDS011;58101;48.658;2.328;2022-08-21T14:40:52;4.57;;;1.10;;
70549;SDS011;58101;48.658;2.328;2022-08-21T14:43:20;3.50;;;0.90;;
70549;SDS011;58101;48.658;2.328;2022-08-21T14:45:46;4.72;;;0.95;;
70549;SDS011;58101;48.658;2.328;2022-08-21T14:50:38;2.95;;;0.70;;
70549;SDS011;58101;48.658;2.328;2022-08-21T14:53:06;4.03;;;0.75;;
70549;SDS011;58101;48.658;2.328;2022-08-21T14:55:32;4.53;;;0.70;;
70549;SDS011;58101;48.658;2.328;2022-08-21T14:58:21;5.95;;;0.88;;
70549;SDS011;58101;48.658;2.328;2022-08-21T15:00:48;6.05;;;0.95;;
70549;SDS011;58101;48.658;2.328;2022-08-21T15:03:14;6.18;;;1.08;;
70549;SDS011;58101;48.658;2.328;2022-08-21T15:08:05;3.63;;;0.80;;
70549;SDS011;58101;48.658;2.328;2022-08-21T15:12:58;3.72;;;0.80;;
70549;SDS011;58101;48.658;2.328;2022-08-21T15:17:49;5.28;;;1.05;;
70549;SDS011;58101;48.658;2.328;2022-08-21T15:22:40;4.35;;;0.93;;
70549;SDS011;58101;48.658;2.328;2022-08-21T15:27:32;5.85;;;0.98;;
70549;SDS011;58101;48.658;2.328;2022-08-21T15:32:24;5.00;;;0.95;;
70549;SDS011;58101;48.658;2.328;2022-08-21T15:34:52;4.90;;;1.10;;
70549;SDS011;58101;48.658;2.328;2022-08-21T15:37:19;5.40;;;1.00;;
70549;SDS011;58101;48.658;2.328;2022-08-21T15:39:44;5.55;;;1.00;;
70549;SDS011;58101;48.658;2.328;2022-08-21T15:44:38;6.45;;;1.15;;
70549;SDS011;58101;48.658;2.328;2022-08-21T15:47:04;4.28;;;1.02;;
70549;SDS011;58101;48.658;2.328;2022-08-21T15:49:31;6.80;;;1.10;;
70549;SDS011;58101;48.658;2.328;2022-08-21T15:54:22;5.20;;;1.10;;
70549;SDS011;58101;48.658;2.328;2022-08-21T15:56:48;5.90;;;1.10;;
70549;SDS011;58101;48.658;2.328;2022-08-21T15:59:17;6.60;;;1.10;;
70549;SDS011;58101;48.658;2.328;2022-08-21T16:01:46;6.00;;;1.20;;
70549;SDS011;58101;48.658;2.328;2022-08-21T16:04:15;6.03;;;1.10;;
70549;SDS011;58101;48.658;2.328;2022-08-21T16:06:47;5.05;;;1.10;;
70549;SDS011;58101;48.658;2.328;2022-08-21T16:09:13;5.45;;;1.10;;
70549;SDS011;58101;48.658;2.328;2022-08-21T16:11:42;6.30;;;1.30;;
70549;SDS011;58101;48.658;2.328;2022-08-21T16:14:10;5.78;;;1.20;;
70549;SDS011;58101;48.658;2.328;2022-08-21T16:16:40;8.77;;;1.35;;
70549;SDS011;58101;48.658;2.328;2022-08-21T16:19:05;7.03;;;1.40;;
70549;SDS011;58101;48.658;2.328;2022-08-21T16:21:32;8.43;;;1.70;;
70549;SDS011;58101;48.658;2.328;2022-08-21T16:23:58;6.68;;;1.55;;
70549;SDS011;58101;48.658;2.328;2022-08-21T16:26:24;7.88;;;1.30;;
70549;SDS011;58101;48.658;2.328;2022-08-21T16:28:52;9.00;;;1.50;;
70549;SDS011;58101;48.658;2.328;2022-08-21T16:31:21;7.38;;;1.30;;
70549;SDS011;58101;48.658;2.328;2022-08-21T16:33:49;7.43;;;1.38;;
70549;SDS011;58101;48.658;2.328;2022-08-21T16:36:17;6.82;;;1.63;;
70549;SDS011;58101;48.658;2.328;2022-08-21T16:38:43;6.60;;;1.30;;
70549;SDS011;58101;48.658;2.328;2022-08-21T16:41:12;7.05;;;1.40;;
70549;SDS011;58101;48.658;2.328;2022-08-21T16:43:41;7.53;;;1.60;;
70549;SDS011;58101;48.658;2.328;2022-08-21T16:46:10;6.53;;;1.33;;
70549;SDS011;58101;48.658;2.328;2022-08-21T16:48:38;8.75;;;1.52;;
70549;SDS011;58101;48.658;2.328;2022-08-21T16:51:04;9.25;;;1.67;;
70549;SDS011;58101;48.658;2.328;2022-08-21T16:53:30;7.95;;;1.40;;
70549;SDS011;58101;48.658;2.328;2022-08-21T16:55:57;7.90;;;1.42;;
70549;SDS011;58101;48.658;2.328;2022-08-21T16:58:24;7.20;;;1.52;;
70549;SDS011;58101;48.658;2.328;2022-08-21T17:00:53;8.52;;;1.30;;
70549;SDS011;58101;48.658;2.328;2022-08-21T17:03:19;8.10;;;1.42;;
70549;SDS011;58101;48.658;2.328;2022-08-21T17:05:52;6.82;;;1.30;;
70549;SDS011;58101;48.658;2.328;2022-08-21T17:08:18;6.55;;;1.40;;